createdAt,value
2023-02-24T00:03:11.855Z,32.30
2023-02-24T00:08:19.589Z,35.00
2023-02-24T00:13:23.584Z,35.20
2023-02-24T00:18:27.437Z,35.20
2023-02-24T00:23:31.662Z,38.10
2023-02-24T00:28:36.695Z,38.00
2023-02-24T00:33:44.144Z,37.60
2023-02-24T00:38:49.136Z,36.10
2023-02-24T00:43:55.320Z,34.90
2023-02-24T00:49:04.919Z,35.90
2023-02-24T00:54:15.263Z,36.20
2023-02-24T00:59:23.700Z,36.20
2023-02-24T01:04:32.577Z,38.20
2023-02-24T01:09:36.657Z,36.40
2023-02-24T01:14:41.323Z,38.40
2023-02-24T01:19:46.917Z,35.90
2023-02-24T01:24:52.609Z,30.60
2023-02-24T01:29:57.375Z,33.90
2023-02-24T01:35:01.079Z,36.40
2023-02-24T01:40:12.219Z,35.00
2023-02-24T01:45:19.908Z,34.60
2023-02-24T01:50:27.269Z,36.10
2023-02-24T01:55:48.842Z,34.90
2023-02-24T02:00:53.030Z,34.20
2023-02-24T02:06:02.177Z,33.90
2023-02-24T02:11:09.847Z,31.90
2023-02-24T02:16:38.339Z,34.40
2023-02-24T02:22:04.241Z,34.20
2023-02-24T02:27:35.265Z,34.10
2023-02-24T02:32:55.909Z,35.50
2023-02-24T02:38:10.885Z,29.70
2023-02-24T02:43:21.227Z,34.10
2023-02-24T02:48:34.837Z,33.40
2023-02-24T02:53:58.422Z,35.10
2023-02-24T02:59:08.104Z,35.10
2023-02-24T03:04:17.516Z,32.40
2023-02-24T03:10:18.160Z,35.90
2023-02-24T03:15:45.163Z,32.30
2023-02-24T03:20:53.552Z,34.50
2023-02-24T03:26:22.077Z,35.50
2023-02-24T03:31:31.760Z,32.50
2023-02-24T03:36:37.372Z,33.70
2023-02-24T03:41:58.230Z,32.80
2023-02-24T03:47:05.128Z,34.20
2023-02-24T03:52:23.742Z,32.90
2023-02-24T03:57:55.291Z,34.80
2023-02-24T04:03:27.481Z,32.40
2023-02-24T04:08:53.272Z,32.90
2023-02-24T04:14:25.369Z,32.30
2023-02-24T04:19:33.228Z,30.70
2023-02-24T04:24:39.884Z,32.70
2023-02-24T04:29:50.773Z,32.30
2023-02-24T04:35:09.828Z,30.40
2023-02-24T04:40:19.013Z,31.20
2023-02-24T04:45:30.269Z,31.30
2023-02-24T04:50:36.861Z,33.10
2023-02-24T04:55:43.755Z,31.20
2023-02-24T05:00:53.092Z,31.00
2023-02-24T05:06:00.545Z,30.50
2023-02-24T05:11:04.727Z,28.10
2023-02-24T05:16:09.470Z,31.80
2023-02-24T05:21:34.443Z,28.90
2023-02-24T05:26:42.189Z,29.20
2023-02-24T05:31:49.661Z,30.50
2023-02-24T05:36:53.664Z,32.60
2023-02-24T05:41:58.221Z,36.40
2023-02-24T05:47:02.370Z,36.50
2023-02-24T05:52:09.942Z,35.70
2023-02-24T05:57:17.726Z,34.90
2023-02-24T06:02:28.132Z,37.90
2023-02-24T06:07:35.776Z,28.40
2023-02-24T06:12:40.439Z,28.20
2023-02-24T06:17:46.116Z,21.80
2023-02-24T06:22:54.689Z,22.40
2023-02-24T06:28:02.201Z,23.30
2023-02-24T06:33:09.818Z,24.30
2023-02-24T06:38:15.259Z,25.80
2023-02-24T06:43:19.871Z,25.70
2023-02-24T06:48:23.918Z,25.70
2023-02-24T06:53:28.249Z,22.90
2023-02-24T06:58:33.037Z,20.80
2023-02-24T07:03:40.118Z,22.90
2023-02-24T07:08:44.723Z,20.40
2023-02-24T07:13:49.811Z,19.40
2023-02-24T07:18:56.914Z,19.80
2023-02-24T07:24:04.471Z,18.90
2023-02-24T07:29:12.412Z,17.40
2023-02-24T07:34:23.722Z,15.70
2023-02-24T07:39:29.593Z,15.60
2023-02-24T07:44:33.856Z,16.50
2023-02-24T07:49:39.600Z,15.40
2023-02-24T07:54:44.635Z,15.00
2023-02-24T07:59:48.565Z,13.40
2023-02-24T08:04:52.454Z,15.20
2023-02-24T08:10:24.588Z,12.70
2023-02-24T08:15:34.557Z,13.60
2023-02-24T08:20:54.469Z,12.80
2023-02-24T08:25:58.263Z,14.40
2023-02-24T08:31:04.899Z,13.70
2023-02-24T08:36:08.876Z,14.00
2023-02-24T08:41:18.539Z,14.60
2023-02-24T08:46:33.141Z,15.00
2023-02-24T08:51:44.105Z,15.40
2023-02-24T08:56:56.479Z,15.00
2023-02-24T09:07:26.192Z,13.10
2023-02-24T09:12:30.718Z,13.20
2023-02-24T09:17:44.396Z,12.60
2023-02-24T09:22:58.279Z,11.70
2023-02-24T09:28:17.767Z,11.60
2023-02-24T09:33:25.197Z,11.20
2023-02-24T09:38:49.338Z,11.90
2023-02-24T09:44:00.197Z,9.20
2023-02-24T09:49:14.444Z,7.20
2023-02-24T09:54:24.810Z,7.90
2023-02-24T09:59:35.030Z,7.70
2023-02-24T10:05:07.553Z,7.50
2023-02-24T10:15:47.938Z,5.30
2023-02-24T10:20:53.834Z,5.60
2023-02-24T10:26:22.289Z,6.10
2023-02-24T10:31:58.348Z,5.80
2023-02-24T10:37:19.340Z,4.90
2023-02-24T10:42:32.616Z,4.50
2023-02-24T10:47:36.864Z,4.30
2023-02-24T10:53:19.054Z,4.70
2023-02-24T10:58:38.329Z,4.00
2023-02-24T11:04:01.408Z,3.70
2023-02-24T11:09:24.023Z,3.40
2023-02-24T11:14:46.603Z,3.10
2023-02-24T11:19:59.681Z,3.00
2023-02-24T11:25:23.126Z,3.70
2023-02-24T11:30:55.456Z,3.20
2023-02-24T11:36:31.751Z,3.20
2023-02-24T11:41:41.353Z,4.60
2023-02-24T11:46:52.853Z,4.50
2023-02-24T11:51:56.934Z,4.30
2023-02-24T11:57:00.897Z,5.00
2023-02-24T12:02:13.929Z,5.20
2023-02-24T12:07:28.493Z,4.90
2023-02-24T12:12:39.231Z,5.80
2023-02-24T12:17:59.151Z,6.70
2023-02-24T12:23:16.179Z,6.40
2023-02-24T12:28:35.036Z,7.10
2023-02-24T12:34:05.340Z,7.30
2023-02-24T12:39:16.480Z,6.90
2023-02-24T12:44:56.509Z,7.10
2023-02-24T12:50:12.736Z,7.30
2023-02-24T12:55:34.562Z,6.70
2023-02-24T13:00:51.757Z,6.60
2023-02-24T13:06:12.961Z,2.30
2023-02-24T13:11:30.251Z,4.80
2023-02-24T13:16:36.476Z,4.60
2023-02-24T13:21:41.238Z,4.20
2023-02-24T13:26:45.480Z,4.10
2023-02-24T13:31:51.672Z,3.50
2023-02-24T13:36:55.564Z,3.80
2023-02-24T13:42:29.792Z,3.00
2023-02-24T13:48:20.030Z,3.30
2023-02-24T13:53:57.795Z,3.10
2023-02-24T13:59:27.170Z,3.20
2023-02-24T14:04:33.024Z,2.70
2023-02-24T14:09:45.761Z,3.00
2023-02-24T14:14:51.289Z,2.50
2023-02-24T14:20:13.604Z,3.20
2023-02-24T14:25:19.072Z,6.10
2023-02-24T14:30:46.099Z,7.60
2023-02-24T14:35:50.565Z,5.50
2023-02-24T14:40:54.214Z,4.70
2023-02-24T14:45:58.300Z,3.40
2023-02-24T14:51:14.570Z,3.60
2023-02-24T14:56:18.933Z,3.00
2023-02-24T15:01:31.531Z,2.90
2023-02-24T15:06:41.420Z,2.60
2023-02-24T15:11:45.803Z,2.90
2023-02-24T15:16:55.944Z,3.00
2023-02-24T15:22:00.083Z,3.30
2023-02-24T15:27:28.059Z,3.00
2023-02-24T15:32:36.161Z,3.30
2023-02-24T15:37:43.060Z,3.00
2023-02-24T15:42:56.290Z,2.90
2023-02-24T15:48:01.989Z,4.00
2023-02-24T15:53:11.791Z,3.70
2023-02-24T15:58:18.603Z,4.70
2023-02-24T16:03:26.792Z,4.10
2023-02-24T16:08:50.576Z,5.10
2023-02-24T16:36:15.422Z,6.20
2023-02-24T16:41:34.452Z,5.60
2023-02-24T16:46:42.031Z,5.40
2023-02-24T16:51:55.202Z,7.10
2023-02-24T16:57:02.508Z,6.50
2023-02-24T17:02:06.362Z,6.00
2023-02-24T17:07:12.456Z,5.70
2023-02-24T17:12:21.350Z,5.60
2023-02-24T17:17:26.733Z,5.30
2023-02-24T17:22:32.145Z,4.70
2023-02-24T17:27:36.084Z,5.00
2023-02-24T17:32:40.051Z,5.40
2023-02-24T17:37:44.643Z,5.70
2023-02-24T17:42:52.319Z,5.90
2023-02-24T17:47:56.812Z,7.10
2023-02-24T17:53:03.565Z,7.50
2023-02-24T17:58:10.791Z,7.50
2023-02-24T18:03:16.472Z,7.60
2023-02-24T18:08:21.873Z,7.90
2023-02-24T18:13:32.160Z,7.80
2023-02-24T18:18:42.828Z,8.70
2023-02-24T18:23:50.017Z,9.30
2023-02-24T18:28:56.524Z,11.90
2023-02-24T18:34:03.300Z,12.40
2023-02-24T18:39:10.338Z,10.90
2023-02-24T18:44:15.222Z,10.50
2023-02-24T18:49:21.597Z,10.30
2023-02-24T18:54:28.416Z,11.30
2023-02-24T18:59:34.354Z,11.40
2023-02-24T19:04:42.599Z,11.90
2023-02-24T19:09:52.773Z,11.80
2023-02-24T19:14:58.534Z,12.10
2023-02-24T19:20:06.455Z,9.80
2023-02-24T19:25:13.802Z,9.00
2023-02-24T19:30:20.070Z,10.10
2023-02-24T19:35:26.972Z,8.90
2023-02-24T19:40:33.878Z,8.90
2023-02-24T19:45:45.727Z,9.50
2023-02-24T19:50:52.294Z,8.60
2023-02-24T19:55:59.069Z,7.60
2023-02-24T20:01:12.730Z,8.00
2023-02-24T20:06:26.369Z,7.00
2023-02-24T20:11:33.396Z,7.80
2023-02-24T20:16:41.029Z,8.50
2023-02-24T20:21:51.041Z,8.40
2023-02-24T20:41:05.685Z,8.90
2023-02-24T20:46:18.671Z,8.50
2023-02-24T20:51:25.779Z,8.90
2023-02-24T20:56:36.604Z,9.20
2023-02-24T21:01:49.857Z,9.40
2023-02-24T21:06:57.370Z,9.10
2023-02-24T21:12:06.158Z,9.20
2023-02-24T21:17:18.074Z,9.60
2023-02-24T21:22:27.229Z,9.70
2023-02-24T21:27:35.775Z,8.70
2023-02-24T21:32:40.315Z,10.10
2023-02-24T21:37:47.958Z,10.50
2023-02-24T21:42:56.775Z,9.40
2023-02-24T21:48:02.048Z,8.90
2023-02-24T21:53:09.307Z,8.20
2023-02-24T21:58:14.103Z,7.50
2023-02-24T22:03:18.721Z,7.10
2023-02-24T22:08:22.550Z,8.20
2023-02-24T22:13:27.241Z,7.30
2023-02-24T22:18:31.060Z,7.00
2023-02-24T22:23:36.223Z,6.80
2023-02-24T22:28:42.216Z,6.40
2023-02-24T22:33:47.081Z,7.20
2023-02-24T22:38:51.772Z,7.60
2023-02-24T22:43:56.816Z,7.20
2023-02-24T22:49:03.952Z,7.30
2023-02-24T22:54:10.569Z,7.10
2023-02-24T22:59:15.703Z,5.90
2023-02-24T23:04:26.085Z,5.30
2023-02-24T23:09:29.827Z,6.30
2023-02-24T23:14:33.827Z,4.90
2023-02-24T23:19:40.527Z,4.80
2023-02-24T23:24:47.785Z,6.00
2023-02-24T23:29:51.863Z,4.10
2023-02-24T23:34:56.790Z,3.90
2023-02-24T23:40:00.989Z,4.60
2023-02-24T23:45:07.022Z,3.80
2023-02-24T23:50:11.990Z,5.20
2023-02-24T23:55:16.492Z,4.50
